sensor_id;sensor_type;location;lat;lon;timestamp;P1;durP1;ratioP1;P2;durP2;ratioP2
27187;SDS011;14708;50.872;5.306;2022-09-13T00:01:17;1.75;;;1.50;;
27187;SDS011;14708;50.872;5.306;2022-09-13T00:03:43;1.95;;;1.65;;
27187;SDS011;14708;50.872;5.306;2022-09-13T00:06:10;1.98;;;1.75;;
27187;SDS011;14708;50.872;5.306;2022-09-13T00:08:37;2.55;;;1.80;;
27187;SDS011;14708;50.872;5.306;2022-09-13T00:11:04;1.92;;;1.70;;
27187;SDS011;14708;50.872;5.306;2022-09-13T00:13:30;1.92;;;1.65;;
27187;SDS011;14708;50.872;5.306;2022-09-13T00:15:55;3.13;;;1.70;;
27187;SDS011;14708;50.872;5.306;2022-09-13T00:18:22;2.13;;;1.90;;
27187;SDS011;14708;50.872;5.306;2022-09-13T00:20:48;1.50;;;1.40;;
27187;SDS011;14708;50.872;5.306;2022-09-13T00:23:13;1.75;;;1.65;;
27187;SDS011;14708;50.872;5.306;2022-09-13T00:25:39;1.65;;;1.55;;
27187;SDS011;14708;50.872;5.306;2022-09-13T00:28:05;2.25;;;1.60;;
27187;SDS011;14708;50.872;5.306;2022-09-13T00:30:31;1.92;;;1.83;;
27187;SDS011;14708;50.872;5.306;2022-09-13T00:32:57;2.20;;;2.00;;
27187;SDS011;14708;50.872;5.306;2022-09-13T00:35:23;1.90;;;1.67;;
27187;SDS011;14708;50.872;5.306;2022-09-13T00:37:48;1.88;;;1.77;;
27187;SDS011;14708;50.872;5.306;2022-09-13T00:40:14;2.30;;;1.90;;
27187;SDS011;14708;50.872;5.306;2022-09-13T00:42:40;2.83;;;1.88;;
27187;SDS011;14708;50.872;5.306;2022-09-13T00:47:43;1.90;;;1.80;;
27187;SDS011;14708;50.872;5.306;2022-09-13T00:50:32;2.30;;;1.52;;
27187;SDS011;14708;50.872;5.306;2022-09-13T00:53:05;1.77;;;1.65;;
27187;SDS011;14708;50.872;5.306;2022-09-13T00:55:40;1.83;;;1.73;;
27187;SDS011;14708;50.872;5.306;2022-09-13T00:58:39;1.60;;;1.50;;
27187;SDS011;14708;50.872;5.306;2022-09-13T01:01:13;2.25;;;1.60;;
27187;SDS011;14708;50.872;5.306;2022-09-13T01:03:40;1.92;;;1.77;;
27187;SDS011;14708;50.872;5.306;2022-09-13T01:06:14;1.98;;;1.77;;
27187;SDS011;14708;50.872;5.306;2022-09-13T01:08:45;1.70;;;1.60;;
27187;SDS011;14708;50.872;5.306;2022-09-13T01:11:19;1.80;;;1.70;;
27187;SDS011;14708;50.872;5.306;2022-09-13T01:13:51;2.85;;;1.65;;
27187;SDS011;14708;50.872;5.306;2022-09-13T01:16:19;2.08;;;1.80;;
27187;SDS011;14708;50.872;5.306;2022-09-13T01:18:44;2.13;;;1.73;;
27187;SDS011;14708;50.872;5.306;2022-09-13T01:32:43;2.17;;;1.80;;
27187;SDS011;14708;50.872;5.306;2022-09-13T01:46:04;1.63;;;1.52;;
27187;SDS011;14708;50.872;5.306;2022-09-13T01:51:33;1.67;;;1.58;;
27187;SDS011;14708;50.872;5.306;2022-09-13T01:54:29;1.70;;;1.60;;
27187;SDS011;14708;50.872;5.306;2022-09-13T01:57:00;2.42;;;2.05;;
27187;SDS011;14708;50.872;5.306;2022-09-13T01:59:59;1.90;;;1.80;;
27187;SDS011;14708;50.872;5.306;2022-09-13T02:05:01;2.00;;;1.80;;
27187;SDS011;14708;50.872;5.306;2022-09-13T02:07:33;1.95;;;1.67;;
27187;SDS011;14708;50.872;5.306;2022-09-13T02:10:08;1.75;;;1.65;;
27187;SDS011;14708;50.872;5.306;2022-09-13T02:12:43;1.75;;;1.65;;
27187;SDS011;14708;50.872;5.306;2022-09-13T02:15:16;1.60;;;1.50;;
27187;SDS011;14708;50.872;5.306;2022-09-13T02:20:50;2.53;;;1.70;;
27187;SDS011;14708;50.872;5.306;2022-09-13T02:23:20;1.80;;;1.70;;
27187;SDS011;14708;50.872;5.306;2022-09-13T02:25:50;1.50;;;1.40;;
27187;SDS011;14708;50.872;5.306;2022-09-13T02:28:20;1.83;;;1.70;;
27187;SDS011;14708;50.872;5.306;2022-09-13T02:30:53;2.08;;;1.88;;
27187;SDS011;14708;50.872;5.306;2022-09-13T02:33:29;1.60;;;1.50;;
27187;SDS011;14708;50.872;5.306;2022-09-13T02:36:00;2.33;;;1.60;;
27187;SDS011;14708;50.872;5.306;2022-09-13T02:38:30;1.63;;;1.52;;
27187;SDS011;14708;50.872;5.306;2022-09-13T02:41:06;1.40;;;1.30;;
27187;SDS011;14708;50.872;5.306;2022-09-13T02:43:40;1.92;;;1.60;;
27187;SDS011;14708;50.872;5.306;2022-09-13T02:46:21;1.92;;;1.70;;
27187;SDS011;14708;50.872;5.306;2022-09-13T02:49:05;2.15;;;1.60;;
27187;SDS011;14708;50.872;5.306;2022-09-13T02:56:58;1.65;;;1.55;;
27187;SDS011;14708;50.872;5.306;2022-09-13T02:59:41;1.83;;;1.60;;
27187;SDS011;14708;50.872;5.306;2022-09-13T03:02:11;2.28;;;1.63;;
27187;SDS011;14708;50.872;5.306;2022-09-13T03:04:39;1.60;;;1.50;;
27187;SDS011;14708;50.872;5.306;2022-09-13T03:07:08;1.58;;;1.48;;
27187;SDS011;14708;50.872;5.306;2022-09-13T03:09:35;1.92;;;1.70;;
27187;SDS011;14708;50.872;5.306;2022-09-13T03:12:06;2.67;;;1.60;;
27187;SDS011;14708;50.872;5.306;2022-09-13T03:14:55;1.90;;;1.80;;
27187;SDS011;14708;50.872;5.306;2022-09-13T03:17:40;2.15;;;1.73;;
27187;SDS011;14708;50.872;5.306;2022-09-13T03:20:40;1.50;;;1.40;;
27187;SDS011;14708;50.872;5.306;2022-09-13T03:23:18;1.85;;;1.70;;
27187;SDS011;14708;50.872;5.306;2022-09-13T03:31:31;1.90;;;1.70;;
27187;SDS011;14708;50.872;5.306;2022-09-13T03:34:11;2.53;;;1.60;;
27187;SDS011;14708;50.872;5.306;2022-09-13T03:36:58;1.63;;;1.52;;
27187;SDS011;14708;50.872;5.306;2022-09-13T03:39:40;1.88;;;1.50;;
27187;SDS011;14708;50.872;5.306;2022-09-13T03:42:41;1.60;;;1.50;;
27187;SDS011;14708;50.872;5.306;2022-09-13T03:45:12;1.70;;;1.60;;
27187;SDS011;14708;50.872;5.306;2022-09-13T03:47:41;1.70;;;1.60;;
27187;SDS011;14708;50.872;5.306;2022-09-13T03:50:09;1.60;;;1.50;;
27187;SDS011;14708;50.872;5.306;2022-09-13T03:52:42;1.70;;;1.60;;
27187;SDS011;14708;50.872;5.306;2022-09-13T03:55:09;1.80;;;1.70;;
27187;SDS011;14708;50.872;5.306;2022-09-13T03:57:35;1.50;;;1.40;;
27187;SDS011;14708;50.872;5.306;2022-09-13T04:00:01;1.60;;;1.50;;
27187;SDS011;14708;50.872;5.306;2022-09-13T04:02:27;1.88;;;1.50;;
27187;SDS011;14708;50.872;5.306;2022-09-13T04:04:53;1.70;;;1.60;;
27187;SDS011;14708;50.872;5.306;2022-09-13T04:07:19;1.70;;;1.60;;
27187;SDS011;14708;50.872;5.306;2022-09-13T04:09:46;1.33;;;1.23;;
27187;SDS011;14708;50.872;5.306;2022-09-13T04:12:12;1.63;;;1.52;;
27187;SDS011;14708;50.872;5.306;2022-09-13T04:14:39;1.60;;;1.50;;
27187;SDS011;14708;50.872;5.306;2022-09-13T04:17:07;1.50;;;1.40;;
27187;SDS011;14708;50.872;5.306;2022-09-13T04:19:32;1.92;;;1.40;;
27187;SDS011;14708;50.872;5.306;2022-09-13T04:21:58;1.73;;;1.60;;
27187;SDS011;14708;50.872;5.306;2022-09-13T04:24:25;1.77;;;1.67;;
27187;SDS011;14708;50.872;5.306;2022-09-13T04:26:52;1.65;;;1.55;;
27187;SDS011;14708;50.872;5.306;2022-09-13T04:29:19;1.50;;;1.40;;
27187;SDS011;14708;50.872;5.306;2022-09-13T04:31:46;1.60;;;1.38;;
27187;SDS011;14708;50.872;5.306;2022-09-13T04:34:12;2.08;;;1.88;;
27187;SDS011;14708;50.872;5.306;2022-09-13T04:36:38;1.60;;;1.50;;
27187;SDS011;14708;50.872;5.306;2022-09-13T04:39:04;1.70;;;1.60;;
27187;SDS011;14708;50.872;5.306;2022-09-13T04:41:30;1.70;;;1.60;;
27187;SDS011;14708;50.872;5.306;2022-09-13T04:43:57;1.52;;;1.42;;
27187;SDS011;14708;50.872;5.306;2022-09-13T04:46:23;2.08;;;1.85;;
27187;SDS011;14708;50.872;5.306;2022-09-13T04:48:49;1.50;;;1.40;;
27187;SDS011;14708;50.872;5.306;2022-09-13T04:51:15;1.40;;;1.30;;
27187;SDS011;14708;50.872;5.306;2022-09-13T04:53:42;1.48;;;1.38;;
27187;SDS011;14708;50.872;5.306;2022-09-13T04:56:08;1.40;;;1.30;;
27187;SDS011;14708;50.872;5.306;2022-09-13T04:58:35;1.42;;;1.33;;
27187;SDS011;14708;50.872;5.306;2022-09-13T05:01:04;1.52;;;1.42;;
27187;SDS011;14708;50.872;5.306;2022-09-13T05:03:32;1.80;;;1.70;;
27187;SDS011;14708;50.872;5.306;2022-09-13T05:06:05;1.55;;;1.45;;
27187;SDS011;14708;50.872;5.306;2022-09-13T05:08:33;1.70;;;1.60;;
27187;SDS011;14708;50.872;5.306;2022-09-13T05:10:59;1.58;;;1.38;;
27187;SDS011;14708;50.872;5.306;2022-09-13T05:13:25;1.48;;;1.38;;
27187;SDS011;14708;50.872;5.306;2022-09-13T05:16:02;1.50;;;1.40;;
27187;SDS011;14708;50.872;5.306;2022-09-13T05:18:30;1.60;;;1.40;;
27187;SDS011;14708;50.872;5.306;2022-09-13T05:20:57;1.40;;;1.30;;
27187;SDS011;14708;50.872;5.306;2022-09-13T05:23:24;1.40;;;1.30;;
27187;SDS011;14708;50.872;5.306;2022-09-13T05:25:52;1.48;;;1.38;;
27187;SDS011;14708;50.872;5.306;2022-09-13T05:28:18;2.53;;;1.55;;
27187;SDS011;14708;50.872;5.306;2022-09-13T05:30:52;1.88;;;1.77;;
27187;SDS011;14708;50.872;5.306;2022-09-13T05:33:26;1.33;;;1.23;;
27187;SDS011;14708;50.872;5.306;2022-09-13T05:35:57;1.48;;;1.38;;
27187;SDS011;14708;50.872;5.306;2022-09-13T05:38:23;1.40;;;1.30;;
27187;SDS011;14708;50.872;5.306;2022-09-13T05:40:52;1.50;;;1.40;;
27187;SDS011;14708;50.872;5.306;2022-09-13T05:43:20;1.50;;;1.40;;
27187;SDS011;14708;50.872;5.306;2022-09-13T05:45:47;2.85;;;1.65;;
27187;SDS011;14708;50.872;5.306;2022-09-13T05:48:13;2.55;;;1.45;;
27187;SDS011;14708;50.872;5.306;2022-09-13T05:50:38;2.85;;;1.35;;
27187;SDS011;14708;50.872;5.306;2022-09-13T05:53:04;2.88;;;1.48;;
27187;SDS011;14708;50.872;5.306;2022-09-13T05:55:33;3.30;;;1.85;;
27187;SDS011;14708;50.872;5.306;2022-09-13T05:58:02;6.43;;;1.70;;
27187;SDS011;14708;50.872;5.306;2022-09-13T06:00:28;6.32;;;2.03;;
27187;SDS011;14708;50.872;5.306;2022-09-13T06:02:55;8.10;;;1.75;;
27187;SDS011;14708;50.872;5.306;2022-09-13T06:05:21;7.65;;;1.80;;
27187;SDS011;14708;50.872;5.306;2022-09-13T06:07:47;6.32;;;2.03;;
27187;SDS011;14708;50.872;5.306;2022-09-13T06:10:13;8.20;;;1.95;;
27187;SDS011;14708;50.872;5.306;2022-09-13T06:12:38;9.27;;;2.28;;
27187;SDS011;14708;50.872;5.306;2022-09-13T06:15:04;5.15;;;2.00;;
27187;SDS011;14708;50.872;5.306;2022-09-13T06:17:30;9.55;;;2.58;;
27187;SDS011;14708;50.872;5.306;2022-09-13T06:19:56;13.43;;;2.92;;
27187;SDS011;14708;50.872;5.306;2022-09-13T06:22:21;8.43;;;2.17;;
27187;SDS011;14708;50.872;5.306;2022-09-13T06:24:47;4.18;;;1.80;;
27187;SDS011;14708;50.872;5.306;2022-09-13T06:27:13;3.38;;;2.00;;
27187;SDS011;14708;50.872;5.306;2022-09-13T06:29:38;8.90;;;2.28;;
27187;SDS011;14708;50.872;5.306;2022-09-13T06:32:04;5.95;;;2.00;;
27187;SDS011;14708;50.872;5.306;2022-09-13T06:34:30;4.70;;;1.98;;
27187;SDS011;14708;50.872;5.306;2022-09-13T06:36:55;3.72;;;2.10;;
27187;SDS011;14708;50.872;5.306;2022-09-13T06:39:21;5.70;;;2.35;;
27187;SDS011;14708;50.872;5.306;2022-09-13T06:41:47;8.80;;;2.25;;
27187;SDS011;14708;50.872;5.306;2022-09-13T06:44:12;3.67;;;2.15;;
27187;SDS011;14708;50.872;5.306;2022-09-13T06:46:38;6.13;;;2.47;;
27187;SDS011;14708;50.872;5.306;2022-09-13T06:49:05;7.53;;;2.33;;
27187;SDS011;14708;50.872;5.306;2022-09-13T06:51:32;4.47;;;1.90;;
27187;SDS011;14708;50.872;5.306;2022-09-13T06:53:58;7.30;;;2.42;;
27187;SDS011;14708;50.872;5.306;2022-09-13T06:56:28;10.57;;;2.08;;
27187;SDS011;14708;50.872;5.306;2022-09-13T06:58:58;6.25;;;2.38;;
27187;SDS011;14708;50.872;5.306;2022-09-13T07:06:28;8.27;;;2.45;;
27187;SDS011;14708;50.872;5.306;2022-09-13T07:08:56;8.73;;;2.40;;
27187;SDS011;14708;50.872;5.306;2022-09-13T07:11:23;8.90;;;2.60;;
27187;SDS011;14708;50.872;5.306;2022-09-13T07:13:51;3.40;;;2.00;;
27187;SDS011;14708;50.872;5.306;2022-09-13T07:16:22;4.32;;;2.25;;
27187;SDS011;14708;50.872;5.306;2022-09-13T07:21:25;9.63;;;2.50;;
27187;SDS011;14708;50.872;5.306;2022-09-13T07:23:51;5.47;;;2.22;;
27187;SDS011;14708;50.872;5.306;2022-09-13T07:26:18;6.63;;;2.10;;
27187;SDS011;14708;50.872;5.306;2022-09-13T07:28:45;4.97;;;2.17;;
27187;SDS011;14708;50.872;5.306;2022-09-13T07:33:45;3.42;;;2.08;;
27187;SDS011;14708;50.872;5.306;2022-09-13T07:36:12;7.00;;;2.20;;
27187;SDS011;14708;50.872;5.306;2022-09-13T07:38:39;8.25;;;2.30;;
27187;SDS011;14708;50.872;5.306;2022-09-13T07:41:11;5.07;;;2.17;;
27187;SDS011;14708;50.872;5.306;2022-09-13T07:43:56;4.32;;;2.05;;
27187;SDS011;14708;50.872;5.306;2022-09-13T07:46:25;7.65;;;2.13;;
27187;SDS011;14708;50.872;5.306;2022-09-13T07:48:53;4.57;;;1.75;;
27187;SDS011;14708;50.872;5.306;2022-09-13T07:51:21;6.82;;;2.20;;
27187;SDS011;14708;50.872;5.306;2022-09-13T07:53:49;6.38;;;2.25;;
27187;SDS011;14708;50.872;5.306;2022-09-13T07:56:20;11.85;;;2.58;;
27187;SDS011;14708;50.872;5.306;2022-09-13T07:58:49;7.32;;;2.65;;
27187;SDS011;14708;50.872;5.306;2022-09-13T08:01:37;6.30;;;2.00;;
27187;SDS011;14708;50.872;5.306;2022-09-13T08:04:04;3.85;;;2.10;;
27187;SDS011;14708;50.872;5.306;2022-09-13T08:06:32;6.32;;;2.13;;
27187;SDS011;14708;50.872;5.306;2022-09-13T08:08:59;3.45;;;1.90;;
27187;SDS011;14708;50.872;5.306;2022-09-13T08:13:58;6.15;;;1.80;;
27187;SDS011;14708;50.872;5.306;2022-09-13T08:16:25;5.25;;;2.17;;
27187;SDS011;14708;50.872;5.306;2022-09-13T08:18:55;6.07;;;2.03;;
27187;SDS011;14708;50.872;5.306;2022-09-13T08:21:22;8.43;;;2.40;;
27187;SDS011;14708;50.872;5.306;2022-09-13T08:23:49;6.05;;;1.88;;
27187;SDS011;14708;50.872;5.306;2022-09-13T08:26:19;5.22;;;1.98;;
27187;SDS011;14708;50.872;5.306;2022-09-13T08:28:44;7.43;;;2.47;;
27187;SDS011;14708;50.872;5.306;2022-09-13T08:31:11;4.85;;;1.98;;
27187;SDS011;14708;50.872;5.306;2022-09-13T08:33:41;5.05;;;2.20;;
27187;SDS011;14708;50.872;5.306;2022-09-13T08:36:07;4.25;;;2.40;;
27187;SDS011;14708;50.872;5.306;2022-09-13T08:38:33;3.95;;;1.83;;
27187;SDS011;14708;50.872;5.306;2022-09-13T08:41:00;7.22;;;2.25;;
27187;SDS011;14708;50.872;5.306;2022-09-13T08:46:19;6.05;;;2.58;;
27187;SDS011;14708;50.872;5.306;2022-09-13T08:49:04;4.80;;;2.35;;
27187;SDS011;14708;50.872;5.306;2022-09-13T08:51:36;3.25;;;1.80;;
27187;SDS011;14708;50.872;5.306;2022-09-13T08:54:17;5.15;;;2.17;;
27187;SDS011;14708;50.872;5.306;2022-09-13T09:07:50;4.53;;;1.95;;
27187;SDS011;14708;50.872;5.306;2022-09-13T09:10:27;4.75;;;2.20;;
27187;SDS011;14708;50.872;5.306;2022-09-13T09:13:21;4.70;;;2.30;;
27187;SDS011;14708;50.872;5.306;2022-09-13T09:15:57;5.57;;;2.17;;
27187;SDS011;14708;50.872;5.306;2022-09-13T09:18:31;5.00;;;2.30;;
27187;SDS011;14708;50.872;5.306;2022-09-13T09:21:03;3.33;;;1.98;;
27187;SDS011;14708;50.872;5.306;2022-09-13T09:39:31;6.03;;;2.45;;
27187;SDS011;14708;50.872;5.306;2022-09-13T09:42:02;4.22;;;1.90;;
27187;SDS011;14708;50.872;5.306;2022-09-13T09:44:29;4.32;;;1.90;;
27187;SDS011;14708;50.872;5.306;2022-09-13T09:47:14;4.47;;;2.10;;
27187;SDS011;14708;50.872;5.306;2022-09-13T09:49:44;6.60;;;2.25;;
27187;SDS011;14708;50.872;5.306;2022-09-13T09:52:32;5.10;;;2.15;;
27187;SDS011;14708;50.872;5.306;2022-09-13T09:55:27;8.55;;;2.10;;
27187;SDS011;14708;50.872;5.306;2022-09-13T09:57:59;4.85;;;2.20;;
27187;SDS011;14708;50.872;5.306;2022-09-13T10:00:29;4.13;;;2.05;;
27187;SDS011;14708;50.872;5.306;2022-09-13T10:03:04;3.42;;;2.15;;
27187;SDS011;14708;50.872;5.306;2022-09-13T10:05:35;2.72;;;1.95;;
27187;SDS011;14708;50.872;5.306;2022-09-13T10:08:02;6.70;;;2.20;;
27187;SDS011;14708;50.872;5.306;2022-09-13T10:10:35;17.13;;;4.63;;
27187;SDS011;14708;50.872;5.306;2022-09-13T10:13:13;19.10;;;5.50;;
27187;SDS011;14708;50.872;5.306;2022-09-13T10:15:51;22.23;;;6.45;;
27187;SDS011;14708;50.872;5.306;2022-09-13T10:18:31;30.77;;;7.20;;
27187;SDS011;14708;50.872;5.306;2022-09-13T10:21:09;28.48;;;7.22;;
27187;SDS011;14708;50.872;5.306;2022-09-13T10:23:51;26.58;;;7.07;;
27187;SDS011;14708;50.872;5.306;2022-09-13T10:26:37;16.35;;;5.90;;
27187;SDS011;14708;50.872;5.306;2022-09-13T10:29:08;13.07;;;4.53;;
27187;SDS011;14708;50.872;5.306;2022-09-13T10:31:40;22.63;;;5.88;;
27187;SDS011;14708;50.872;5.306;2022-09-13T10:34:13;20.33;;;5.05;;
27187;SDS011;14708;50.872;5.306;2022-09-13T10:37:11;22.75;;;5.20;;
27187;SDS011;14708;50.872;5.306;2022-09-13T10:39:49;17.13;;;5.35;;
27187;SDS011;14708;50.872;5.306;2022-09-13T10:42:16;20.02;;;4.55;;
27187;SDS011;14708;50.872;5.306;2022-09-13T10:44:51;15.43;;;4.75;;
27187;SDS011;14708;50.872;5.306;2022-09-13T10:47:44;13.80;;;4.05;;
27187;SDS011;14708;50.872;5.306;2022-09-13T10:50:26;11.82;;;4.25;;
27187;SDS011;14708;50.872;5.306;2022-09-13T10:52:53;13.35;;;4.13;;
27187;SDS011;14708;50.872;5.306;2022-09-13T10:55:31;12.38;;;3.60;;
27187;SDS011;14708;50.872;5.306;2022-09-13T10:58:11;10.75;;;3.78;;
27187;SDS011;14708;50.872;5.306;2022-09-13T11:03:42;7.85;;;3.28;;
27187;SDS011;14708;50.872;5.306;2022-09-13T11:09:37;7.00;;;2.90;;
27187;SDS011;14708;50.872;5.306;2022-09-13T11:15:04;4.28;;;2.40;;
27187;SDS011;14708;50.872;5.306;2022-09-13T11:23:13;5.88;;;2.35;;
27187;SDS011;14708;50.872;5.306;2022-09-13T11:29:05;4.60;;;2.30;;
27187;SDS011;14708;50.872;5.306;2022-09-13T11:39:35;4.88;;;2.30;;
27187;SDS011;14708;50.872;5.306;2022-09-13T11:50:41;4.43;;;2.10;;
27187;SDS011;14708;50.872;5.306;2022-09-13T11:53:30;6.63;;;2.10;;
27187;SDS011;14708;50.872;5.306;2022-09-13T11:56:10;3.75;;;1.80;;
27187;SDS011;14708;50.872;5.306;2022-09-13T11:58:50;5.43;;;1.95;;
27187;SDS011;14708;50.872;5.306;2022-09-13T12:01:21;4.30;;;2.00;;
27187;SDS011;14708;50.872;5.306;2022-09-13T12:03:55;2.63;;;1.73;;
27187;SDS011;14708;50.872;5.306;2022-09-13T12:06:39;3.17;;;1.67;;
27187;SDS011;14708;50.872;5.306;2022-09-13T12:09:15;6.28;;;1.80;;
27187;SDS011;14708;50.872;5.306;2022-09-13T12:11:47;3.25;;;1.77;;
27187;SDS011;14708;50.872;5.306;2022-09-13T12:14:22;8.63;;;2.10;;
27187;SDS011;14708;50.872;5.306;2022-09-13T12:16:53;5.30;;;1.85;;
27187;SDS011;14708;50.872;5.306;2022-09-13T12:19:42;3.60;;;2.00;;
27187;SDS011;14708;50.872;5.306;2022-09-13T12:22:11;3.83;;;1.70;;
27187;SDS011;14708;50.872;5.306;2022-09-13T12:24:54;2.60;;;1.48;;
27187;SDS011;14708;50.872;5.306;2022-09-13T12:27:42;6.18;;;1.92;;
27187;SDS011;14708;50.872;5.306;2022-09-13T12:30:17;3.38;;;1.65;;
27187;SDS011;14708;50.872;5.306;2022-09-13T12:32:44;2.67;;;1.45;;
27187;SDS011;14708;50.872;5.306;2022-09-13T12:37:50;3.72;;;1.65;;
27187;SDS011;14708;50.872;5.306;2022-09-13T13:10:29;4.53;;;1.70;;
27187;SDS011;14708;50.872;5.306;2022-09-13T13:23:20;3.05;;;1.80;;
27187;SDS011;14708;50.872;5.306;2022-09-13T13:25:55;3.13;;;1.52;;
27187;SDS011;14708;50.872;5.306;2022-09-13T13:31:09;3.40;;;1.77;;
27187;SDS011;14708;50.872;5.306;2022-09-13T13:34:23;2.33;;;1.42;;
27187;SDS011;14708;50.872;5.306;2022-09-13T13:36:54;4.33;;;2.30;;
27187;SDS011;14708;50.872;5.306;2022-09-13T13:41:59;7.72;;;2.20;;
27187;SDS011;14708;50.872;5.306;2022-09-13T13:46:52;18.73;;;5.30;;
27187;SDS011;14708;50.872;5.306;2022-09-13T13:52:31;18.48;;;5.03;;
27187;SDS011;14708;50.872;5.306;2022-09-13T14:02:55;14.82;;;3.85;;
27187;SDS011;14708;50.872;5.306;2022-09-13T14:08:58;14.68;;;4.60;;
27187;SDS011;14708;50.872;5.306;2022-09-13T14:16:44;14.93;;;4.82;;
27187;SDS011;14708;50.872;5.306;2022-09-13T14:19:39;14.93;;;5.30;;
27187;SDS011;14708;50.872;5.306;2022-09-13T14:29:45;14.63;;;4.53;;
27187;SDS011;14708;50.872;5.306;2022-09-13T14:32:17;13.20;;;4.47;;
27187;SDS011;14708;50.872;5.306;2022-09-13T14:35:04;11.35;;;3.92;;
27187;SDS011;14708;50.872;5.306;2022-09-13T14:37:44;11.10;;;4.00;;
27187;SDS011;14708;50.872;5.306;2022-09-13T14:40:31;15.05;;;4.75;;
27187;SDS011;14708;50.872;5.306;2022-09-13T14:42:55;12.15;;;4.25;;
27187;SDS011;14708;50.872;5.306;2022-09-13T14:45:26;7.25;;;3.70;;
27187;SDS011;14708;50.872;5.306;2022-09-13T14:48:04;9.15;;;4.03;;
27187;SDS011;14708;50.872;5.306;2022-09-13T14:50:41;11.82;;;3.80;;
27187;SDS011;14708;50.872;5.306;2022-09-13T14:53:18;12.55;;;4.50;;
27187;SDS011;14708;50.872;5.306;2022-09-13T14:55:50;11.20;;;3.65;;
27187;SDS011;14708;50.872;5.306;2022-09-13T14:58:22;7.57;;;3.58;;
27187;SDS011;14708;50.872;5.306;2022-09-13T15:00:57;10.13;;;3.13;;
27187;SDS011;14708;50.872;5.306;2022-09-13T15:03:26;9.07;;;3.35;;
27187;SDS011;14708;50.872;5.306;2022-09-13T15:05:53;10.18;;;4.65;;
27187;SDS011;14708;50.872;5.306;2022-09-13T15:10:59;18.65;;;7.88;;
27187;SDS011;14708;50.872;5.306;2022-09-13T15:13:27;20.95;;;6.55;;
27187;SDS011;14708;50.872;5.306;2022-09-13T15:15:53;26.73;;;9.88;;
27187;SDS011;14708;50.872;5.306;2022-09-13T15:23:31;29.48;;;10.93;;
27187;SDS011;14708;50.872;5.306;2022-09-13T15:26:04;25.17;;;10.02;;
27187;SDS011;14708;50.872;5.306;2022-09-13T15:28:47;27.95;;;10.43;;
27187;SDS011;14708;50.872;5.306;2022-09-13T15:31:21;28.35;;;10.32;;
27187;SDS011;14708;50.872;5.306;2022-09-13T15:33:47;18.88;;;6.40;;
27187;SDS011;14708;50.872;5.306;2022-09-13T15:38:54;19.05;;;7.72;;
27187;SDS011;14708;50.872;5.306;2022-09-13T15:41:34;10.55;;;3.47;;
27187;SDS011;14708;50.872;5.306;2022-09-13T15:44:02;7.28;;;3.13;;
27187;SDS011;14708;50.872;5.306;2022-09-13T15:46:30;12.57;;;5.83;;
27187;SDS011;14708;50.872;5.306;2022-09-13T15:48:57;18.73;;;6.47;;
27187;SDS011;14708;50.872;5.306;2022-09-13T15:51:25;17.02;;;5.93;;
27187;SDS011;14708;50.872;5.306;2022-09-13T15:53:51;14.27;;;4.25;;
27187;SDS011;14708;50.872;5.306;2022-09-13T15:56:19;17.40;;;5.28;;
27187;SDS011;14708;50.872;5.306;2022-09-13T15:58:49;11.20;;;4.65;;
27187;SDS011;14708;50.872;5.306;2022-09-13T16:01:15;7.22;;;3.65;;
27187;SDS011;14708;50.872;5.306;2022-09-13T16:03:41;8.07;;;3.60;;
27187;SDS011;14708;50.872;5.306;2022-09-13T16:06:07;11.95;;;3.28;;
27187;SDS011;14708;50.872;5.306;2022-09-13T16:08:34;13.80;;;3.88;;
27187;SDS011;14708;50.872;5.306;2022-09-13T16:11:00;8.65;;;3.58;;
27187;SDS011;14708;50.872;5.306;2022-09-13T16:13:26;8.38;;;3.10;;
27187;SDS011;14708;50.872;5.306;2022-09-13T16:15:51;5.47;;;2.80;;
27187;SDS011;14708;50.872;5.306;2022-09-13T16:18:17;4.45;;;2.42;;
27187;SDS011;14708;50.872;5.306;2022-09-13T16:20:43;8.07;;;2.83;;
27187;SDS011;14708;50.872;5.306;2022-09-13T16:23:09;7.85;;;2.83;;
27187;SDS011;14708;50.872;5.306;2022-09-13T16:25:35;5.10;;;2.42;;
27187;SDS011;14708;50.872;5.306;2022-09-13T16:28:02;9.98;;;3.08;;
27187;SDS011;14708;50.872;5.306;2022-09-13T16:30:29;5.75;;;2.80;;
27187;SDS011;14708;50.872;5.306;2022-09-13T16:32:55;4.93;;;2.97;;
27187;SDS011;14708;50.872;5.306;2022-09-13T16:35:21;7.03;;;2.38;;
27187;SDS011;14708;50.872;5.306;2022-09-13T16:37:51;5.72;;;2.50;;
27187;SDS011;14708;50.872;5.306;2022-09-13T16:40:17;7.47;;;2.30;;
27187;SDS011;14708;50.872;5.306;2022-09-13T16:42:44;7.22;;;2.60;;
27187;SDS011;14708;50.872;5.306;2022-09-13T16:45:10;7.20;;;2.30;;
27187;SDS011;14708;50.872;5.306;2022-09-13T16:47:36;9.52;;;2.63;;
27187;SDS011;14708;50.872;5.306;2022-09-13T16:50:03;6.15;;;2.50;;
27187;SDS011;14708;50.872;5.306;2022-09-13T16:52:30;5.55;;;2.33;;
27187;SDS011;14708;50.872;5.306;2022-09-13T16:54:56;4.15;;;2.25;;
27187;SDS011;14708;50.872;5.306;2022-09-13T16:57:23;5.38;;;2.58;;
27187;SDS011;14708;50.872;5.306;2022-09-13T16:59:49;6.25;;;2.50;;
27187;SDS011;14708;50.872;5.306;2022-09-13T17:02:17;3.58;;;2.35;;
27187;SDS011;14708;50.872;5.306;2022-09-13T17:04:43;4.25;;;2.40;;
27187;SDS011;14708;50.872;5.306;2022-09-13T17:07:09;7.68;;;2.85;;
27187;SDS011;14708;50.872;5.306;2022-09-13T17:09:35;4.65;;;2.30;;
27187;SDS011;14708;50.872;5.306;2022-09-13T17:12:01;5.22;;;2.42;;
27187;SDS011;14708;50.872;5.306;2022-09-13T17:14:27;7.30;;;2.63;;
27187;SDS011;14708;50.872;5.306;2022-09-13T17:16:53;7.10;;;2.67;;
27187;SDS011;14708;50.872;5.306;2022-09-13T17:19:30;7.03;;;2.40;;
27187;SDS011;14708;50.872;5.306;2022-09-13T17:24:27;7.18;;;2.53;;
27187;SDS011;14708;50.872;5.306;2022-09-13T17:26:54;4.82;;;2.20;;
27187;SDS011;14708;50.872;5.306;2022-09-13T17:29:23;5.15;;;2.55;;
27187;SDS011;14708;50.872;5.306;2022-09-13T17:31:50;7.65;;;2.40;;
27187;SDS011;14708;50.872;5.306;2022-09-13T17:34:16;3.03;;;2.33;;
27187;SDS011;14708;50.872;5.306;2022-09-13T17:36:43;7.50;;;2.60;;
27187;SDS011;14708;50.872;5.306;2022-09-13T17:39:09;4.20;;;2.53;;
27187;SDS011;14708;50.872;5.306;2022-09-13T17:41:35;3.05;;;2.22;;
27187;SDS011;14708;50.872;5.306;2022-09-13T17:44:00;3.13;;;2.60;;
27187;SDS011;14708;50.872;5.306;2022-09-13T17:46:27;4.53;;;2.60;;
27187;SDS011;14708;50.872;5.306;2022-09-13T17:48:54;5.25;;;2.72;;
27187;SDS011;14708;50.872;5.306;2022-09-13T17:51:23;5.55;;;2.78;;
27187;SDS011;14708;50.872;5.306;2022-09-13T17:53:57;4.43;;;2.60;;
27187;SDS011;14708;50.872;5.306;2022-09-13T17:56:29;5.88;;;2.55;;
27187;SDS011;14708;50.872;5.306;2022-09-13T17:59:02;4.72;;;2.90;;
27187;SDS011;14708;50.872;5.306;2022-09-13T18:01:34;4.55;;;2.60;;
27187;SDS011;14708;50.872;5.306;2022-09-13T18:04:00;4.25;;;2.58;;
27187;SDS011;14708;50.872;5.306;2022-09-13T18:06:27;7.05;;;2.78;;
27187;SDS011;14708;50.872;5.306;2022-09-13T18:08:53;5.10;;;2.70;;
27187;SDS011;14708;50.872;5.306;2022-09-13T18:11:19;7.57;;;3.08;;
27187;SDS011;14708;50.872;5.306;2022-09-13T18:13:44;5.35;;;2.78;;
27187;SDS011;14708;50.872;5.306;2022-09-13T18:16:14;5.75;;;2.78;;
27187;SDS011;14708;50.872;5.306;2022-09-13T18:18:44;4.25;;;2.90;;
27187;SDS011;14708;50.872;5.306;2022-09-13T18:21:11;5.22;;;2.90;;
27187;SDS011;14708;50.872;5.306;2022-09-13T18:23:42;5.93;;;2.97;;
27187;SDS011;14708;50.872;5.306;2022-09-13T18:26:12;3.60;;;2.67;;
27187;SDS011;14708;50.872;5.306;2022-09-13T18:28:40;5.93;;;3.08;;
27187;SDS011;14708;50.872;5.306;2022-09-13T18:31:07;4.30;;;2.80;;
27187;SDS011;14708;50.872;5.306;2022-09-13T18:33:36;5.78;;;2.88;;
27187;SDS011;14708;50.872;5.306;2022-09-13T18:36:06;4.68;;;3.22;;
27187;SDS011;14708;50.872;5.306;2022-09-13T18:38:40;5.15;;;2.95;;
27187;SDS011;14708;50.872;5.306;2022-09-13T18:41:09;3.85;;;2.60;;